createdAt,value
2023-09-10T00:01:08.685Z,18.93
2023-09-10T00:03:35.777Z,21.13
2023-09-10T00:06:06.140Z,33.30
2023-09-10T00:08:34.029Z,20.53
2023-09-10T00:11:01.160Z,21.87
2023-09-10T00:13:28.852Z,24.00
2023-09-10T00:15:56.917Z,21.77
2023-09-10T00:18:24.312Z,19.67
2023-09-10T00:20:54.377Z,21.70
2023-09-10T00:23:21.669Z,26.47
2023-09-10T00:25:49.043Z,22.10
2023-09-10T00:28:16.126Z,39.53
2023-09-10T00:30:43.051Z,20.13
2023-09-10T00:33:10.020Z,23.43
2023-09-10T00:35:37.010Z,23.63
2023-09-10T00:38:04.226Z,22.27
2023-09-10T00:40:31.825Z,23.80
2023-09-10T00:42:58.826Z,24.77
2023-09-10T00:45:25.864Z,20.70
2023-09-10T00:47:52.927Z,20.07
2023-09-10T00:50:20.116Z,18.70
2023-09-10T00:52:50.980Z,20.00
2023-09-10T00:55:19.700Z,24.47
2023-09-10T00:57:46.827Z,18.87
2023-09-10T01:00:15.070Z,22.10
2023-09-10T01:02:46.040Z,23.60
2023-09-10T01:05:13.482Z,25.07
2023-09-10T01:07:40.647Z,17.87
2023-09-10T01:10:08.606Z,20.10
2023-09-10T01:13:23.258Z,29.73
2023-09-10T01:16:07.947Z,18.10
2023-09-10T01:18:44.604Z,23.50
2023-09-10T01:21:51.206Z,17.17
2023-09-10T01:24:48.858Z,19.77
2023-09-10T01:27:16.271Z,22.03
2023-09-10T01:29:44.825Z,23.50
2023-09-10T01:32:37.056Z,26.63
2023-09-10T01:35:21.296Z,25.10
2023-09-10T01:38:11.177Z,23.97
2023-09-10T01:40:58.244Z,18.73
2023-09-10T01:43:25.736Z,21.27
2023-09-10T01:45:52.772Z,20.93
2023-09-10T01:48:19.745Z,25.00
2023-09-10T01:50:46.796Z,19.60
2023-09-10T01:53:17.783Z,20.83
2023-09-10T01:55:45.242Z,19.30
2023-09-10T01:58:14.335Z,20.10
2023-09-10T02:00:41.838Z,19.23
2023-09-10T02:03:08.981Z,18.53
2023-09-10T02:05:36.015Z,22.10
2023-09-10T02:08:03.408Z,19.20
2023-09-10T02:10:33.019Z,17.97
2023-09-10T02:13:00.145Z,19.20
2023-09-10T02:15:27.760Z,17.83
2023-09-10T02:17:55.192Z,19.77
2023-09-10T02:20:22.193Z,21.90
2023-09-10T02:22:49.263Z,24.50
2023-09-10T02:25:16.279Z,21.43
2023-09-10T02:27:43.633Z,21.87
2023-09-10T02:30:10.768Z,21.93
2023-09-10T02:32:38.905Z,22.00
2023-09-10T02:35:06.612Z,20.80
2023-09-10T02:37:34.007Z,25.90
2023-09-10T02:40:00.987Z,20.13
2023-09-10T02:42:28.625Z,21.97
2023-09-10T02:44:55.554Z,21.57
2023-09-10T02:47:22.584Z,19.10
2023-09-10T02:49:49.797Z,20.23
2023-09-10T02:52:16.805Z,27.30
2023-09-10T02:54:43.753Z,25.70
2023-09-10T02:57:10.730Z,22.50
2023-09-10T02:59:37.682Z,28.63
2023-09-10T03:02:04.676Z,20.90
2023-09-10T03:04:31.618Z,28.43
2023-09-10T03:06:58.578Z,19.10
2023-09-10T03:09:25.545Z,23.43
2023-09-10T03:11:52.473Z,21.10
2023-09-10T03:14:19.622Z,18.50
2023-09-10T03:16:46.657Z,22.93
2023-09-10T03:19:13.865Z,19.37
2023-09-10T03:21:41.102Z,22.30
2023-09-10T03:24:08.629Z,24.40
2023-09-10T03:26:35.558Z,22.50
2023-09-10T03:29:02.555Z,21.17
2023-09-10T03:31:30.594Z,22.47
2023-09-10T03:33:57.710Z,22.77
2023-09-10T03:36:24.694Z,23.57
2023-09-10T03:38:51.713Z,27.30
2023-09-10T03:41:18.668Z,19.27
2023-09-10T03:43:45.726Z,20.77
2023-09-10T03:46:12.914Z,19.00
2023-09-10T03:48:40.111Z,25.67
2023-09-10T03:51:07.331Z,18.80
2023-09-10T03:53:34.381Z,19.67
2023-09-10T03:56:01.421Z,19.20
2023-09-10T03:58:28.760Z,20.07
2023-09-10T04:00:55.861Z,21.83
2023-09-10T04:03:23.119Z,19.20
2023-09-10T04:05:50.192Z,20.83
2023-09-10T04:08:17.204Z,19.93
2023-09-10T04:10:44.191Z,18.60
2023-09-10T04:13:12.203Z,24.00
2023-09-10T04:15:39.140Z,20.17
2023-09-10T04:18:06.884Z,24.83
2023-09-10T04:20:34.035Z,25.20
2023-09-10T04:23:01.115Z,19.37
2023-09-10T04:25:28.141Z,23.97
2023-09-10T04:27:55.167Z,21.90
2023-09-10T04:30:22.491Z,19.03
2023-09-10T04:32:49.522Z,18.43
2023-09-10T04:35:16.679Z,21.87
2023-09-10T04:37:43.865Z,22.53
2023-09-10T04:40:11.609Z,22.30
2023-09-10T04:42:38.551Z,24.70
2023-09-10T04:45:06.093Z,18.77
2023-09-10T04:47:33.315Z,21.13
2023-09-10T04:50:00.574Z,19.13
2023-09-10T04:52:27.901Z,20.70
2023-09-10T04:54:54.930Z,24.23
2023-09-10T04:57:21.886Z,19.53
2023-09-10T04:59:48.970Z,20.13
2023-09-10T05:02:16.041Z,18.17
2023-09-10T05:04:43.074Z,20.90
2023-09-10T05:07:10.017Z,20.20
2023-09-10T05:09:37.020Z,20.57
2023-09-10T05:12:04.625Z,20.70
2023-09-10T05:14:31.547Z,18.37
2023-09-10T05:16:58.536Z,22.53
2023-09-10T05:19:25.570Z,20.67
2023-09-10T05:21:53.156Z,23.53
2023-09-10T05:24:20.188Z,21.40
2023-09-10T05:26:47.154Z,18.47
2023-09-10T05:29:14.171Z,20.07
2023-09-10T05:31:41.330Z,21.30
2023-09-10T05:34:08.415Z,20.53
2023-09-10T05:36:35.701Z,24.70
2023-09-10T05:39:02.989Z,27.13
2023-09-10T05:41:30.236Z,26.73
2023-09-10T05:43:57.841Z,22.70
2023-09-10T05:46:25.972Z,22.37
2023-09-10T05:48:53.097Z,24.23
2023-09-10T05:51:20.074Z,21.33
2023-09-10T05:53:47.257Z,22.03
2023-09-10T05:56:14.676Z,21.93
2023-09-10T05:58:43.138Z,24.47
2023-09-10T06:01:10.138Z,26.87
2023-09-10T06:03:37.205Z,25.70
2023-09-10T06:06:04.419Z,22.00
2023-09-10T06:08:32.232Z,23.87
2023-09-10T06:10:59.381Z,19.10
2023-09-10T06:13:26.771Z,20.33
2023-09-10T06:15:53.843Z,22.40
2023-09-10T06:18:22.595Z,23.13
2023-09-10T06:20:49.523Z,23.50
2023-09-10T06:23:16.611Z,23.30
2023-09-10T06:25:44.805Z,27.87
2023-09-10T06:28:13.407Z,20.97
2023-09-10T06:30:40.393Z,25.33
2023-09-10T06:33:07.525Z,23.83
2023-09-10T06:35:35.378Z,19.90
2023-09-10T06:38:02.851Z,20.53
2023-09-10T06:40:30.882Z,20.37
2023-09-10T06:42:58.203Z,23.07
2023-09-10T06:45:37.885Z,21.97
2023-09-10T06:48:05.910Z,31.17
2023-09-10T06:50:32.948Z,27.67
2023-09-10T06:52:59.923Z,25.17
2023-09-10T06:55:26.938Z,26.37
2023-09-10T06:57:53.974Z,25.23
2023-09-10T07:00:21.016Z,22.20
2023-09-10T07:02:47.930Z,21.40
2023-09-10T07:05:15.244Z,22.90
2023-09-10T07:07:42.207Z,22.93
2023-09-10T07:10:11.287Z,20.60
2023-09-10T07:12:38.479Z,23.60
2023-09-10T07:15:05.990Z,21.33
2023-09-10T07:17:32.941Z,19.23
2023-09-10T07:19:59.906Z,22.23
2023-09-10T07:22:26.848Z,19.87
2023-09-10T07:24:53.770Z,19.30
2023-09-10T07:27:20.701Z,18.83
2023-09-10T07:29:47.620Z,20.53
2023-09-10T07:32:14.572Z,25.00
2023-09-10T07:34:41.509Z,18.43
2023-09-10T07:37:11.175Z,22.73
2023-09-10T07:39:39.167Z,22.43
2023-09-10T07:42:06.101Z,21.10
2023-09-10T07:44:33.120Z,21.23
2023-09-10T07:47:00.078Z,23.17
2023-09-10T07:49:27.015Z,20.83
2023-09-10T07:51:53.962Z,23.77
2023-09-10T07:54:20.901Z,23.13
2023-09-10T07:56:47.825Z,19.50
2023-09-10T07:59:14.813Z,19.23
2023-09-10T08:01:41.844Z,19.57
2023-09-10T08:04:08.969Z,20.33
2023-09-10T08:06:36.156Z,19.53
2023-09-10T08:09:04.079Z,22.87
2023-09-10T08:11:32.577Z,18.17
2023-09-10T08:13:59.534Z,20.03
2023-09-10T08:16:26.525Z,19.27
2023-09-10T08:18:53.489Z,34.80
2023-09-10T08:21:21.427Z,16.00
2023-09-10T08:23:48.637Z,19.10
2023-09-10T08:26:15.712Z,19.60
2023-09-10T08:28:42.637Z,18.20
2023-09-10T08:31:09.608Z,18.97
2023-09-10T08:33:36.532Z,18.07
2023-09-10T08:36:04.372Z,23.30
2023-09-10T08:38:31.325Z,20.50
2023-09-10T08:41:00.978Z,15.33
2023-09-10T08:43:52.256Z,20.70
2023-09-10T08:46:24.726Z,21.90
2023-09-10T08:48:52.934Z,13.70
2023-09-10T08:51:20.555Z,21.07
2023-09-10T08:53:49.137Z,14.03
2023-09-10T08:56:16.424Z,17.70
2023-09-10T08:58:44.714Z,15.40
2023-09-10T09:01:12.954Z,14.70
2023-09-10T09:03:40.044Z,15.87
2023-09-10T09:06:07.204Z,14.90
2023-09-10T09:08:36.849Z,15.73
2023-09-10T09:11:14.297Z,15.20
2023-09-10T09:13:46.749Z,15.37
2023-09-10T09:16:14.014Z,13.57
2023-09-10T09:18:42.334Z,19.03
2023-09-10T09:21:21.396Z,13.90
2023-09-10T09:24:02.969Z,14.97
2023-09-10T09:26:31.551Z,14.90
2023-09-10T09:28:58.893Z,21.40
2023-09-10T09:31:26.547Z,12.57
2023-09-10T09:33:54.239Z,12.70
2023-09-10T09:36:26.487Z,15.03
2023-09-10T09:38:53.449Z,14.13
2023-09-10T09:41:20.444Z,16.93
2023-09-10T09:43:47.611Z,15.47
2023-09-10T09:46:14.598Z,13.90
2023-09-10T09:48:41.754Z,15.80
2023-09-10T09:51:09.639Z,12.83
2023-09-10T09:53:37.253Z,18.73
2023-09-10T09:56:06.734Z,13.93
2023-09-10T09:58:34.442Z,13.50
2023-09-10T10:01:02.179Z,13.40
2023-09-10T10:03:33.446Z,16.33
2023-09-10T10:06:00.583Z,13.73
2023-09-10T10:08:33.917Z,10.30
2023-09-10T10:11:00.890Z,14.53
2023-09-10T10:13:28.565Z,12.37
2023-09-10T10:15:57.479Z,10.27
2023-09-10T10:18:29.853Z,11.80
2023-09-10T10:20:59.524Z,13.37
2023-09-10T10:23:27.205Z,10.70
2023-09-10T10:25:55.898Z,14.83
2023-09-10T10:28:23.116Z,18.30
2023-09-10T10:30:58.053Z,11.50
2023-09-10T10:33:27.521Z,11.20
2023-09-10T10:36:16.238Z,14.73
2023-09-10T10:38:46.588Z,14.80
2023-09-10T10:41:25.790Z,13.80
2023-09-10T10:44:01.102Z,13.87
2023-09-10T10:46:30.604Z,10.33
2023-09-10T10:48:59.743Z,12.00
2023-09-10T10:51:29.948Z,12.33
2023-09-10T10:54:00.883Z,10.70
2023-09-10T10:56:27.912Z,12.03
2023-09-10T10:58:54.965Z,16.07
2023-09-10T11:01:21.960Z,23.77
2023-09-10T11:03:50.111Z,12.20
2023-09-10T11:06:17.921Z,16.97
2023-09-10T11:08:49.636Z,9.93
2023-09-10T11:11:42.773Z,9.40
2023-09-10T11:14:11.716Z,12.87
2023-09-10T11:16:44.165Z,16.00
2023-09-10T11:19:45.320Z,11.63
2023-09-10T11:22:12.347Z,10.67
2023-09-10T11:24:42.118Z,10.30
2023-09-10T11:27:29.375Z,12.57
2023-09-10T11:30:14.440Z,12.23
2023-09-10T11:32:45.731Z,13.23
2023-09-10T11:35:20.111Z,13.03
2023-09-10T11:37:57.313Z,14.80
2023-09-10T11:40:26.018Z,11.43
2023-09-10T11:42:53.095Z,13.65
2023-09-10T11:45:20.471Z,11.20
2023-09-10T11:47:51.819Z,9.53
2023-09-10T11:50:24.967Z,11.70
2023-09-10T11:52:52.469Z,11.98
2023-09-10T11:55:20.032Z,14.55
2023-09-10T11:57:47.749Z,14.13
2023-09-10T12:00:17.393Z,13.20
2023-09-10T12:02:44.806Z,15.80
2023-09-10T12:05:12.306Z,13.43
2023-09-10T12:07:44.225Z,10.38
2023-09-10T12:10:13.632Z,10.52
2023-09-10T12:12:42.288Z,9.93
2023-09-10T12:15:09.741Z,15.10
2023-09-10T12:17:36.732Z,17.38
2023-09-10T12:20:04.014Z,12.55
2023-09-10T12:22:30.978Z,11.63
2023-09-10T12:24:57.965Z,14.45
2023-09-10T12:27:24.918Z,16.20
2023-09-10T12:29:51.856Z,11.27
2023-09-10T12:32:18.829Z,11.02
2023-09-10T12:34:45.774Z,15.02
2023-09-10T12:37:16.591Z,10.77
2023-09-10T12:39:45.934Z,9.02
2023-09-10T12:42:12.986Z,16.67
2023-09-10T12:44:41.791Z,11.65
2023-09-10T12:47:13.099Z,11.73
2023-09-10T12:49:40.823Z,12.13
2023-09-10T12:52:08.123Z,8.30
2023-09-10T12:54:35.224Z,12.63
2023-09-10T12:57:05.419Z,13.23
2023-09-10T12:59:33.032Z,14.60
2023-09-10T13:02:04.456Z,19.27
2023-09-10T13:04:31.653Z,14.07
2023-09-10T13:06:58.671Z,9.77
2023-09-10T13:09:25.689Z,12.25
2023-09-10T13:11:52.599Z,10.98
2023-09-10T13:14:19.652Z,9.32
2023-09-10T13:16:46.746Z,14.25
2023-09-10T13:19:13.786Z,11.07
2023-09-10T13:21:40.776Z,9.07
2023-09-10T13:24:08.023Z,10.65
2023-09-10T13:26:34.991Z,14.23
2023-09-10T13:29:01.962Z,10.32
2023-09-10T13:31:29.502Z,14.05
2023-09-10T13:33:56.554Z,12.23
2023-09-10T13:36:24.917Z,7.90
2023-09-10T13:38:51.964Z,11.52
2023-09-10T13:41:19.001Z,11.18
2023-09-10T13:43:45.946Z,12.50
2023-09-10T13:46:12.946Z,9.93
2023-09-10T13:48:39.883Z,12.25
2023-09-10T13:51:09.342Z,12.60
2023-09-10T13:53:43.024Z,12.48
2023-09-10T13:56:13.709Z,9.40
2023-09-10T13:58:40.676Z,12.00
2023-09-10T14:01:10.724Z,14.05
2023-09-10T14:03:38.481Z,9.75
2023-09-10T14:06:06.420Z,12.60
2023-09-10T14:08:33.470Z,10.40
2023-09-10T14:11:00.435Z,9.50
2023-09-10T14:13:27.372Z,14.65
2023-09-10T14:15:54.318Z,11.82
2023-09-10T14:18:21.362Z,9.45
2023-09-10T14:20:48.338Z,9.77
2023-09-10T14:23:15.866Z,10.48
2023-09-10T14:25:42.937Z,10.93
2023-09-10T14:28:09.874Z,9.57
2023-09-10T14:30:36.962Z,9.98
2023-09-10T14:33:04.179Z,10.32
2023-09-10T14:35:31.228Z,16.20
2023-09-10T14:38:00.143Z,15.00
2023-09-10T14:40:27.345Z,12.02
2023-09-10T14:42:54.321Z,11.68
2023-09-10T14:45:21.218Z,12.95
2023-09-10T14:47:48.211Z,21.85
2023-09-10T14:50:15.294Z,16.35
2023-09-10T14:52:43.376Z,14.07
2023-09-10T14:55:13.648Z,15.53
2023-09-10T14:57:40.856Z,15.23
2023-09-10T15:00:08.595Z,18.83
2023-09-10T15:02:37.540Z,11.13
2023-09-10T15:05:07.950Z,13.35
2023-09-10T15:07:34.932Z,13.50
2023-09-10T15:10:01.978Z,19.30
2023-09-10T15:12:29.270Z,13.13
2023-09-10T15:14:56.358Z,15.13
2023-09-10T15:17:23.330Z,15.25
2023-09-10T15:19:50.257Z,12.90
2023-09-10T15:22:17.157Z,15.50
2023-09-10T15:24:44.084Z,11.80
2023-09-10T15:27:11.037Z,17.37
2023-09-10T15:29:38.048Z,14.73
2023-09-10T15:32:05.655Z,12.63
2023-09-10T15:34:32.620Z,13.43
2023-09-10T15:36:59.540Z,12.77
2023-09-10T15:39:26.477Z,17.27
2023-09-10T15:41:54.203Z,23.53
2023-09-10T15:44:21.383Z,16.60
2023-09-10T15:46:48.477Z,16.07
2023-09-10T15:49:15.458Z,13.80
2023-09-10T15:51:42.501Z,13.47
2023-09-10T15:54:09.457Z,19.33
2023-09-10T15:56:36.457Z,13.03
2023-09-10T15:59:04.255Z,14.40
2023-09-10T16:01:32.017Z,14.23
2023-09-10T16:03:59.035Z,11.90
2023-09-10T16:06:25.977Z,15.43
2023-09-10T16:08:52.903Z,20.50
2023-09-10T16:11:19.951Z,11.17
2023-09-10T16:13:46.967Z,15.73
2023-09-10T16:16:13.952Z,17.47
2023-09-10T16:18:40.911Z,11.23
2023-09-10T16:21:08.075Z,11.20
2023-09-10T16:23:35.078Z,15.80
2023-09-10T16:26:02.606Z,13.70
2023-09-10T16:28:29.689Z,12.60
2023-09-10T16:30:56.701Z,15.57
2023-09-10T16:33:23.854Z,19.00
2023-09-10T16:35:50.873Z,22.37
2023-09-10T16:38:17.887Z,12.20
2023-09-10T16:40:44.818Z,12.33
2023-09-10T16:43:11.806Z,15.53
2023-09-10T16:45:38.710Z,14.20
2023-09-10T16:48:06.017Z,23.40
2023-09-10T16:50:33.071Z,11.63
2023-09-10T16:53:02.712Z,13.50
2023-09-10T16:55:30.084Z,14.10
2023-09-10T16:57:57.071Z,16.80
2023-09-10T17:00:24.014Z,33.27
2023-09-10T17:02:51.481Z,13.47
2023-09-10T17:05:18.542Z,27.20
2023-09-10T17:07:45.499Z,20.10
2023-09-10T17:10:12.528Z,17.43
2023-09-10T17:12:39.461Z,17.20
2023-09-10T17:15:07.160Z,19.10
2023-09-10T17:17:39.222Z,19.00
2023-09-10T17:20:08.651Z,21.07
2023-09-10T17:22:36.167Z,18.00
2023-09-10T17:25:04.274Z,16.13
2023-09-10T17:27:31.215Z,20.07
2023-09-10T17:29:58.318Z,17.13
2023-09-10T17:32:25.328Z,23.83
2023-09-10T17:34:52.327Z,16.90
2023-09-10T17:37:23.644Z,22.73
2023-09-10T17:39:54.662Z,21.43
2023-09-10T17:42:21.746Z,25.50
2023-09-10T17:44:51.836Z,24.37
2023-09-10T17:47:27.937Z,21.27
2023-09-10T17:50:05.998Z,19.90
2023-09-10T17:52:34.509Z,31.70
2023-09-10T17:55:05.912Z,34.67
2023-09-10T17:57:34.332Z,29.43
2023-09-10T18:00:01.633Z,30.13
2023-09-10T18:02:28.871Z,26.03
2023-09-10T18:04:56.093Z,22.87
2023-09-10T18:07:23.123Z,27.33
2023-09-10T18:09:51.365Z,21.57
2023-09-10T18:12:19.412Z,18.30
2023-09-10T18:14:46.410Z,27.73
2023-09-10T18:17:14.496Z,23.60
2023-09-10T18:19:42.849Z,20.37
2023-09-10T18:22:09.854Z,24.50
2023-09-10T18:24:36.790Z,22.70
2023-09-10T18:27:03.979Z,24.57
2023-09-10T18:29:31.092Z,19.23
2023-09-10T18:31:58.113Z,22.27
2023-09-10T18:34:25.206Z,22.10
2023-09-10T18:36:52.184Z,26.03
2023-09-10T18:39:19.482Z,20.43
2023-09-10T18:41:46.443Z,25.80
2023-09-10T18:44:13.420Z,20.83
2023-09-10T18:46:40.403Z,18.40
2023-09-10T18:49:07.729Z,21.50
2023-09-10T18:51:34.710Z,23.50
2023-09-10T18:54:01.660Z,22.37
2023-09-10T18:56:28.661Z,27.17
2023-09-10T18:58:56.588Z,21.93
2023-09-10T19:01:23.569Z,24.23
2023-09-10T19:03:50.792Z,23.20
2023-09-10T19:06:17.773Z,23.53
2023-09-10T19:08:44.737Z,20.20
2023-09-10T19:11:11.676Z,21.33
2023-09-10T19:13:38.774Z,19.90
2023-09-10T19:16:05.973Z,22.93
2023-09-10T19:18:32.961Z,20.90
2023-09-10T19:21:00.081Z,24.80
2023-09-10T19:23:27.034Z,24.10
2023-09-10T19:25:54.970Z,22.40
2023-09-10T19:28:21.882Z,23.43
2023-09-10T19:30:52.771Z,25.57
2023-09-10T19:33:19.989Z,23.40
2023-09-10T19:35:47.095Z,26.47
2023-09-10T19:38:14.083Z,24.00
2023-09-10T19:40:41.010Z,28.47
2023-09-10T19:43:07.925Z,27.53
2023-09-10T19:45:34.878Z,25.77
2023-09-10T19:48:01.859Z,22.17
2023-09-10T19:50:28.882Z,26.60
2023-09-10T19:52:55.837Z,25.37
2023-09-10T19:55:22.753Z,25.70
2023-09-10T19:57:49.666Z,31.10
2023-09-10T20:00:16.683Z,36.83
2023-09-10T20:02:44.389Z,24.83
2023-09-10T20:05:11.674Z,28.37
2023-09-10T20:07:41.880Z,28.07
2023-09-10T20:10:09.760Z,24.23
2023-09-10T20:12:36.759Z,28.13
2023-09-10T20:15:06.481Z,29.80
2023-09-10T20:17:34.230Z,25.47
2023-09-10T20:20:01.270Z,29.50
2023-09-10T20:22:28.209Z,26.40
2023-09-10T20:24:55.190Z,30.37
2023-09-10T20:27:22.142Z,24.83
2023-09-10T20:29:49.110Z,27.70
2023-09-10T20:32:16.266Z,40.43
2023-09-10T20:34:43.221Z,33.60
2023-09-10T20:37:10.451Z,25.27
2023-09-10T20:39:37.332Z,30.53
2023-09-10T20:42:04.327Z,27.83
2023-09-10T20:44:31.297Z,36.37
2023-09-10T20:46:58.658Z,34.13
2023-09-10T20:49:25.579Z,28.57
2023-09-10T20:51:54.692Z,31.67
2023-09-10T20:54:21.825Z,29.30
2023-09-10T20:56:48.829Z,29.37
2023-09-10T20:59:15.889Z,31.20
2023-09-10T21:01:42.916Z,33.10
2023-09-10T21:04:11.412Z,33.43
2023-09-10T21:06:39.140Z,31.97
2023-09-10T21:09:06.311Z,32.77
2023-09-10T21:11:33.481Z,38.87
2023-09-10T21:14:05.776Z,42.63
2023-09-10T21:16:33.402Z,37.47
2023-09-10T21:19:02.784Z,35.63
2023-09-10T21:21:29.712Z,36.93
2023-09-10T21:23:57.068Z,33.63
2023-09-10T21:26:24.413Z,36.67
2023-09-10T21:28:51.387Z,42.70
2023-09-10T21:31:18.331Z,39.37
2023-09-10T21:33:45.255Z,38.07
2023-09-10T21:36:12.194Z,35.00
2023-09-10T21:38:39.935Z,41.97
2023-09-10T21:41:07.350Z,40.00
2023-09-10T21:43:34.268Z,44.60
2023-09-10T21:46:07.300Z,38.57
2023-09-10T21:48:34.383Z,37.63
2023-09-10T21:51:01.436Z,48.53
2023-09-10T21:53:28.396Z,41.63
2023-09-10T21:55:55.354Z,43.57
2023-09-10T21:58:22.890Z,41.03
2023-09-10T22:00:49.805Z,39.70
2023-09-10T22:03:16.835Z,41.90
2023-09-10T22:05:45.189Z,50.80
2023-09-10T22:08:12.525Z,44.20
2023-09-10T22:10:39.521Z,43.57
2023-09-10T22:13:06.507Z,40.70
2023-09-10T22:15:33.476Z,61.47
2023-09-10T22:18:00.512Z,46.50
2023-09-10T22:20:27.549Z,45.27
2023-09-10T22:22:56.265Z,49.60
2023-09-10T22:25:24.343Z,42.43
2023-09-10T22:27:53.343Z,47.80
2023-09-10T22:30:20.403Z,47.67
2023-09-10T22:32:48.842Z,48.87
2023-09-10T22:35:15.873Z,56.90
2023-09-10T22:37:42.809Z,50.50
2023-09-10T22:40:11.258Z,47.77
2023-09-10T22:42:39.053Z,51.20
2023-09-10T22:45:06.736Z,43.17
2023-09-10T22:47:34.021Z,48.07
2023-09-10T22:50:01.093Z,47.10
2023-09-10T22:52:28.035Z,46.20
2023-09-10T22:54:55.008Z,44.37
2023-09-10T22:57:21.941Z,47.00
2023-09-10T22:59:48.889Z,49.90
2023-09-10T23:02:16.934Z,44.70
2023-09-10T23:04:44.080Z,44.70
2023-09-10T23:07:11.077Z,49.50
2023-09-10T23:09:38.007Z,48.20
2023-09-10T23:12:05.148Z,52.30
2023-09-10T23:14:32.128Z,47.23
2023-09-10T23:16:59.047Z,43.37
2023-09-10T23:19:26.025Z,49.27
2023-09-10T23:21:52.974Z,44.80
2023-09-10T23:24:19.889Z,47.87
2023-09-10T23:26:50.304Z,48.30
2023-09-10T23:29:17.901Z,48.67
2023-09-10T23:31:48.543Z,50.23
2023-09-10T23:34:20.608Z,45.60
2023-09-10T23:36:48.334Z,52.03
2023-09-10T23:39:15.335Z,47.57
2023-09-10T23:41:42.598Z,44.00
2023-09-10T23:44:09.562Z,46.83
2023-09-10T23:46:37.894Z,50.37
2023-09-10T23:49:05.273Z,49.73
2023-09-10T23:51:32.216Z,47.20
2023-09-10T23:53:59.119Z,39.83
2023-09-10T23:56:26.192Z,36.80
2023-09-10T23:58:53.161Z,55.13
